• Join FlightAware (Why Join?)
  • Login
  • US Flag 
01:43AM EDT


 

Airport Tracker/Info


-or-


 

Live Flight TrackerFlight Track Log ✈ N5098N ✈ 06-Nov-2013 ✈ KGAI

Flight Track Log - Related Links

Times and Time Zones

All times are in EST time to prevent confusion due to time zone crossing. See the N5098N flight status page for this flight to view local times or setup timezone preferences in your user account.

Time Position Orientation Groundspeed Altitude Reporting Facility
EST Latitude Longitude Course Direction KTS MPH feet Rate Location/Type
10:57PM 39.1500 -77.1167 90° East 100 115 1,800  Level Potomac TRACON
10:58PM 39.1500 -77.0833 90° East 114 131 2,200 240 Climbing Potomac TRACON
10:59PM 39.1333 -77.0500 123° Southeast 128 147 2,300  Climbing Potomac TRACON
11:00PM 39.1167 -77.0000 113° Southeast 133 153 2,300 -60 Level Potomac TRACON
11:01PM 39.1000 -76.9667 123° Southeast 134 154 2,200 -120 Descending Potomac TRACON
11:02PM 39.1000 -76.9167 90° East 131 151 2,100 -120 Descending Potomac TRACON
11:03PM 39.0667 -76.8833 142° Southeast 119 137 2,000 -60 Descending Potomac TRACON
11:04PM 39.0500 -76.8500 123° Southeast 121 139 2,000  Level Potomac TRACON
11:05PM 39.0333 -76.8167 123° Southeast 119 137 2,000  Level Potomac TRACON
11:06PM 39.0167 -76.7833 123° Southeast 115 132 2,000  Level Potomac TRACON
11:07PM 39.0000 -76.7500 123° Southeast 112 129 2,000  Level Potomac TRACON
11:08PM 38.9833 -76.7167 123° Southeast 111 128 2,000  Level Potomac TRACON
11:09PM 38.9667 -76.7000 142° Southeast 112 129 2,000  Level Potomac TRACON
11:10PM 38.9500 -76.6667 123° Southeast 113 130 2,000  Level Potomac TRACON
11:11PM 38.9167 -76.6333 142° Southeast 115 132 2,000  Level Potomac TRACON
11:12PM 38.9000 -76.6167 142° Southeast 114 131 2,000  Level Potomac TRACON
11:13PM 38.8667 -76.6167 180° South 103 119 2,000  Level Potomac TRACON
11:14PM 38.8500 -76.6167 180° South 98 113 2,000  Level Potomac TRACON
11:15PM 38.8167 -76.6167 180° South 96 110 2,000  Level Potomac TRACON
11:16PM 38.7833 -76.6000 159° South 99 114 2,000  Level Potomac TRACON
11:17PM 38.7667 -76.6000 180° South 100 115 2,000  Level Potomac TRACON
11:18PM 38.7333 -76.6000 180° South 100 115 2,000  Level Potomac TRACON
11:21PM 38.7239 -76.5527 104° East  Level FlightAware Approximate
11:28PM 38.6756 -76.3109 104° East  Level FlightAware Approximate
11:29PM 38.6656 -76.2672 201° Southwest  Level FlightAware Approximate
11:30PM 38.6397 -76.2802 201° Southwest  Level FlightAware Approximate
11:31PM 38.6138 -76.2931 201° Southwest  Level FlightAware Approximate
11:32PM 38.5873 -76.3040 194° South  Level FlightAware Approximate
11:33PM 38.5603 -76.3126 194° South  Level FlightAware Approximate
11:34PM 38.5333 -76.3211 194° South  Level FlightAware Approximate
11:35PM 38.5063 -76.3297 194° South  Level FlightAware Approximate
11:36PM 38.4793 -76.3382 194° South  Level FlightAware Approximate
11:37PM 38.4523 -76.3468 194° South  Level FlightAware Approximate
11:38PM 38.4253 -76.3553 194° South  Level FlightAware Approximate
11:39PM 38.3982 -76.3638 194° South  Level FlightAware Approximate
11:40PM 38.3712 -76.3723 194° South  Level FlightAware Approximate
11:41PM 38.3442 -76.3808 194° South  Level FlightAware Approximate
11:42PM 38.3172 -76.3894 194° South  Level FlightAware Approximate
11:43PM 38.2902 -76.3979 194° South  Level FlightAware Approximate
11:44PM 38.2923 -76.4239 296° West  Level FlightAware Approximate
11:45PM 38.3044 -76.4559 296° West  Level FlightAware Approximate
11:46PM 38.3164 -76.4878 296° West  Level FlightAware Approximate
11:47PM 38.3284 -76.5199 296° West  Level FlightAware Approximate
11:48PM 38.3404 -76.5519 296° West  Level FlightAware Approximate
11:49PM 38.3524 -76.5839 296° West  Level FlightAware Approximate
11:50PM 38.3644 -76.6159 296° West  Level FlightAware Approximate
11:51PM 38.3764 -76.6479 295° West  Level FlightAware Approximate
11:52PM 38.3896 -76.6791 303° West  Level FlightAware Approximate
11:53PM 38.4000 -76.7000 303° West  Level FlightAware Approximate
11:54PM 38.4000 -76.7000 303° West  Level FlightAware Approximate
11:55PM 38.4000 -76.7000 303° West  Level FlightAware Approximate
11:56PM 38.4000 -76.7000 303° West  Level FlightAware Approximate
11:57PM 38.4000 -76.7000 303° West  Level FlightAware Approximate
11:58PM 38.4000 -76.7000 303° West  Level FlightAware Approximate
11:59PM 38.4000 -76.7000 303° West  Level FlightAware Approximate
12:00AM 38.4000 -76.7000 303° West  Level FlightAware Approximate
12:01AM 38.4000 -76.7000 303° West  Level FlightAware Approximate
12:02AM 38.4000 -76.7000 303° West  Level FlightAware Approximate
12:03AM 38.4000 -76.7000 303° West  Level FlightAware Approximate
12:04AM 38.4000 -76.7000 303° West  Level FlightAware Approximate
12:05AM 38.4000 -76.7000 303° West  Level FlightAware Approximate
12:06AM 38.4000 -76.7000 303° West  Level FlightAware Approximate
12:07AM 38.4000 -76.7000 303° West  Level FlightAware Approximate
12:08AM 38.4000 -76.7000 303° West  Level FlightAware Approximate
12:09AM 38.4000 -76.7000 303° West  Level FlightAware Approximate